createdAt,value
2019-02-15T00:00:07.447Z,7.23
2019-02-15T00:02:42.429Z,7.18
2019-02-15T00:05:16.382Z,7.18
2019-02-15T00:07:50.625Z,7.20
2019-02-15T00:10:24.818Z,7.21
2019-02-15T00:12:59.080Z,7.23
2019-02-15T00:15:32.958Z,7.22
2019-02-15T00:18:44.147Z,7.24
2019-02-15T00:21:19.986Z,7.24
2019-02-15T00:23:53.259Z,7.24
2019-02-15T00:26:27.136Z,7.23
2019-02-15T00:29:01.221Z,7.24
2019-02-15T00:31:35.355Z,7.23
2019-02-15T00:34:09.221Z,7.24
2019-02-15T00:36:43.467Z,7.23
2019-02-15T00:39:16.722Z,7.25
2019-02-15T00:41:50.472Z,7.26
2019-02-15T00:44:23.755Z,7.27
2019-02-15T00:47:09.539Z,7.25
2019-02-15T00:50:19.552Z,7.24
2019-02-15T00:53:14.905Z,7.21
2019-02-15T00:56:04.463Z,7.20
2019-02-15T00:58:55.184Z,7.20
2019-02-15T01:01:50.187Z,7.21
2019-02-15T01:04:33.957Z,7.19
2019-02-15T01:07:23.977Z,7.13
2019-02-15T01:10:14.741Z,7.09
2019-02-15T01:12:52.314Z,7.08
2019-02-15T01:15:26.424Z,7.13
2019-02-15T01:17:59.360Z,7.13
2019-02-15T01:20:33.524Z,7.06
2019-02-15T01:23:07.240Z,7.03
2019-02-15T01:25:49.436Z,7.03
2019-02-15T01:28:53.169Z,7.02
2019-02-15T01:31:38.726Z,6.98
2019-02-15T01:34:25.226Z,6.96
2019-02-15T01:37:12.133Z,6.97
2019-02-15T01:40:13.590Z,6.96
2019-02-15T01:43:21.295Z,6.98
2019-02-15T01:46:09.747Z,6.97
2019-02-15T01:48:44.039Z,7.01
2019-02-15T01:51:16.879Z,7.01
2019-02-15T01:53:50.630Z,7.04
2019-02-15T01:56:24.868Z,7.05
2019-02-15T01:58:59.079Z,7.07
2019-02-15T02:01:32.444Z,7.08
2019-02-15T02:04:06.673Z,7.10
2019-02-15T02:06:40.299Z,7.10
2019-02-15T02:09:14.229Z,7.10
2019-02-15T02:11:47.977Z,7.10
2019-02-15T02:17:24.700Z,7.13
2019-02-15T02:19:58.929Z,7.14
2019-02-15T02:22:32.858Z,7.16
2019-02-15T02:25:06.131Z,7.17
2019-02-15T02:27:39.923Z,7.10
2019-02-15T02:30:13.425Z,7.12
2019-02-15T02:32:47.237Z,7.09
2019-02-15T02:35:21.019Z,7.11
2019-02-15T02:37:55.275Z,7.09
2019-02-15T02:40:29.039Z,7.08
2019-02-15T02:43:03.424Z,7.06
2019-02-15T02:45:37.118Z,7.06
2019-02-15T02:48:10.920Z,7.05
2019-02-15T02:50:44.702Z,7.01
2019-02-15T02:53:18.410Z,7.01
2019-02-15T02:55:52.007Z,7.01
2019-02-15T02:58:26.248Z,7.00
2019-02-15T03:00:59.547Z,7.02
2019-02-15T03:03:33.281Z,7.05
2019-02-15T03:06:07.723Z,7.04
2019-02-15T03:08:41.318Z,7.03
2019-02-15T03:11:14.748Z,7.01
2019-02-15T03:13:48.832Z,7.03
2019-02-15T03:16:22.217Z,6.98
2019-02-15T03:18:56.473Z,6.96
2019-02-15T03:21:30.532Z,6.95
2019-02-15T03:24:04.270Z,6.93
2019-02-15T03:26:38.481Z,6.92
2019-02-15T03:29:12.310Z,6.95
2019-02-15T03:31:46.042Z,7.00
2019-02-15T03:34:19.721Z,7.02
2019-02-15T03:37:09.704Z,7.05
2019-02-15T03:39:48.844Z,7.03
2019-02-15T03:42:23.044Z,7.00
2019-02-15T03:44:56.537Z,6.96
2019-02-15T03:47:29.892Z,6.92
2019-02-15T03:50:04.984Z,6.86
2019-02-15T03:52:39.308Z,6.82
2019-02-15T03:55:12.585Z,6.75
2019-02-15T03:57:45.945Z,6.69
2019-02-15T04:00:19.308Z,6.65
2019-02-15T04:02:53.378Z,6.62
2019-02-15T04:05:26.738Z,6.61
2019-02-15T04:08:00.394Z,6.60
2019-02-15T04:10:34.214Z,6.54
2019-02-15T04:13:08.202Z,6.47
2019-02-15T04:15:42.105Z,6.37
2019-02-15T04:18:15.409Z,6.31
2019-02-15T04:20:49.727Z,6.31
2019-02-15T04:23:23.020Z,6.33
2019-02-15T04:25:57.247Z,6.35
2019-02-15T04:28:31.463Z,6.33
2019-02-15T04:31:04.759Z,6.31
2019-02-15T04:33:38.120Z,6.32
2019-02-15T04:36:16.750Z,6.30
2019-02-15T04:38:50.605Z,6.29
2019-02-15T04:41:24.133Z,6.28
2019-02-15T04:43:57.984Z,6.26
2019-02-15T04:46:31.716Z,6.26
2019-02-15T04:49:05.401Z,6.27
2019-02-15T04:51:38.160Z,6.25
2019-02-15T04:54:11.556Z,6.21
2019-02-15T04:56:45.341Z,6.17
2019-02-15T04:59:17.850Z,6.14
2019-02-15T05:01:51.538Z,6.12
2019-02-15T05:04:25.355Z,6.09
2019-02-15T05:06:58.633Z,6.05
2019-02-15T05:09:32.616Z,6.02
2019-02-15T05:12:06.658Z,6.01
2019-02-15T05:14:40.566Z,6.00
2019-02-15T05:17:14.324Z,5.95
2019-02-15T05:19:47.533Z,5.92
2019-02-15T05:22:20.019Z,5.88
2019-02-15T05:24:53.809Z,5.86
2019-02-15T05:27:26.788Z,5.75
2019-02-15T05:29:59.651Z,5.69
2019-02-15T05:32:32.523Z,5.64
2019-02-15T05:35:05.484Z,5.59
2019-02-15T05:37:39.318Z,5.57
2019-02-15T05:40:11.745Z,5.55
2019-02-15T05:42:45.132Z,5.53
2019-02-15T05:45:18.594Z,5.52
2019-02-15T05:47:52.806Z,5.51
2019-02-15T05:50:26.610Z,5.49
2019-02-15T05:52:59.944Z,5.48
2019-02-15T05:55:33.881Z,5.46
2019-02-15T05:58:07.927Z,5.42
2019-02-15T06:00:42.203Z,5.36
2019-02-15T06:03:18.053Z,5.30
2019-02-15T06:05:52.607Z,5.28
2019-02-15T06:08:27.820Z,5.27
2019-02-15T06:11:07.252Z,5.24
2019-02-15T06:13:37.819Z,5.23
2019-02-15T06:16:12.427Z,5.19
2019-02-15T06:18:47.130Z,5.16
2019-02-15T06:21:21.774Z,5.14
2019-02-15T06:23:54.943Z,5.09
2019-02-15T06:26:28.312Z,5.07
2019-02-15T06:29:03.179Z,5.06
2019-02-15T06:31:37.451Z,5.03
2019-02-15T06:34:11.153Z,5.01
2019-02-15T06:36:45.322Z,5.00
2019-02-15T06:39:19.207Z,5.01
2019-02-15T06:41:53.336Z,5.02
2019-02-15T06:44:26.893Z,5.03
2019-02-15T06:47:00.713Z,5.00
2019-02-15T06:49:34.455Z,4.97
2019-02-15T06:52:07.724Z,4.95
2019-02-15T06:54:41.794Z,4.90
2019-02-15T06:57:15.216Z,4.93
2019-02-15T06:59:52.973Z,4.94
2019-02-15T07:02:33.184Z,4.99
2019-02-15T07:05:13.544Z,5.03
2019-02-15T07:07:47.326Z,5.06
2019-02-15T07:10:21.593Z,5.10
2019-02-15T07:12:56.553Z,5.08
2019-02-15T07:15:33.898Z,5.11
2019-02-15T07:18:07.982Z,5.12
2019-02-15T07:20:41.660Z,5.16
2019-02-15T07:23:14.095Z,5.18
2019-02-15T07:25:48.401Z,5.20
2019-02-15T07:28:21.764Z,5.19
2019-02-15T07:30:56.629Z,5.21
2019-02-15T07:33:31.089Z,5.20
2019-02-15T07:36:04.039Z,5.22
2019-02-15T07:38:37.228Z,5.20
2019-02-15T07:41:11.005Z,5.20
2019-02-15T07:43:44.959Z,5.17
2019-02-15T07:46:18.371Z,5.18
2019-02-15T07:48:52.641Z,5.21
2019-02-15T07:51:26.849Z,5.24
2019-02-15T07:54:02.103Z,5.27
2019-02-15T07:56:36.162Z,5.30
2019-02-15T07:59:10.078Z,5.33
2019-02-15T08:01:44.258Z,5.38
2019-02-15T08:04:18.011Z,5.41
2019-02-15T08:06:51.285Z,5.46
2019-02-15T08:09:25.427Z,5.50
2019-02-15T08:12:00.183Z,5.57
2019-02-15T08:14:33.041Z,5.64
2019-02-15T08:17:05.942Z,5.68
2019-02-15T08:19:40.077Z,5.73
2019-02-15T08:22:17.205Z,5.79
2019-02-15T08:24:50.106Z,5.87
2019-02-15T08:27:24.796Z,5.93
2019-02-15T08:29:59.189Z,5.96
2019-02-15T08:32:32.244Z,6.01
2019-02-15T08:35:05.717Z,6.04
2019-02-15T08:37:40.272Z,6.07
2019-02-15T08:40:14.102Z,6.08
2019-02-15T08:42:48.151Z,6.11
2019-02-15T08:45:21.671Z,6.13
2019-02-15T08:47:55.917Z,6.19
2019-02-15T08:50:29.699Z,6.25
2019-02-15T08:53:03.840Z,6.29
2019-02-15T08:55:37.870Z,6.34
2019-02-15T08:58:12.601Z,6.38
2019-02-15T09:00:46.612Z,6.41
2019-02-15T09:03:24.664Z,6.47
2019-02-15T09:06:00.219Z,6.52
2019-02-15T09:08:33.914Z,6.56
2019-02-15T09:11:07.463Z,6.59
2019-02-15T09:13:42.054Z,6.64
2019-02-15T09:16:17.865Z,6.70
2019-02-15T09:18:53.633Z,6.76
2019-02-15T09:21:29.445Z,6.81
2019-02-15T09:24:03.865Z,6.86
2019-02-15T09:26:38.303Z,6.89
2019-02-15T09:29:13.742Z,6.97
2019-02-15T09:31:48.692Z,7.03
2019-02-15T09:34:23.942Z,7.10
2019-02-15T09:36:59.049Z,7.16
2019-02-15T09:39:33.410Z,7.21
2019-02-15T09:42:07.403Z,7.27
2019-02-15T09:44:41.878Z,7.31
2019-02-15T09:47:16.129Z,7.36
2019-02-15T09:49:51.175Z,7.41
2019-02-15T09:52:25.530Z,7.44
2019-02-15T09:55:00.667Z,7.50
2019-02-15T09:57:34.595Z,7.55
2019-02-15T10:00:09.024Z,7.59
2019-02-15T10:02:44.751Z,7.65
2019-02-15T10:05:19.660Z,7.72
2019-02-15T10:07:54.182Z,7.74
2019-02-15T10:10:29.793Z,7.81
2019-02-15T10:13:03.657Z,7.84
2019-02-15T10:15:38.544Z,7.91
2019-02-15T10:18:11.430Z,7.94
2019-02-15T10:20:45.904Z,8.02
2019-02-15T10:23:19.326Z,8.05
2019-02-15T10:25:53.943Z,8.14
2019-02-15T10:28:27.910Z,8.20
2019-02-15T10:31:01.257Z,8.26
2019-02-15T10:33:35.030Z,8.30
2019-02-15T10:36:08.498Z,8.38
2019-02-15T10:38:42.665Z,8.43
2019-02-15T10:41:15.621Z,8.53
2019-02-15T10:43:49.881Z,8.61
2019-02-15T10:46:23.023Z,8.69
2019-02-15T10:48:56.887Z,8.74
2019-02-15T10:51:31.074Z,8.78
2019-02-15T10:54:05.738Z,8.85
2019-02-15T10:56:41.268Z,8.93
2019-02-15T10:59:15.540Z,9.02
2019-02-15T11:01:49.441Z,9.09
2019-02-15T11:04:23.013Z,9.15
2019-02-15T11:06:55.943Z,9.23
2019-02-15T11:09:29.701Z,9.28
2019-02-15T11:12:04.343Z,9.34
2019-02-15T11:14:38.771Z,9.39
2019-02-15T11:17:12.750Z,9.48
2019-02-15T11:19:48.086Z,9.54
2019-02-15T11:22:22.169Z,9.62
2019-02-15T11:24:55.512Z,9.69
2019-02-15T11:27:29.046Z,9.79
2019-02-15T11:30:02.669Z,9.83
2019-02-15T11:32:36.500Z,9.91
2019-02-15T11:35:12.888Z,9.98
2019-02-15T11:37:45.748Z,10.07
2019-02-15T11:40:20.287Z,10.16
2019-02-15T11:42:53.687Z,10.21
2019-02-15T11:45:28.146Z,10.30
2019-02-15T11:48:01.726Z,10.37
2019-02-15T11:50:35.919Z,10.46
2019-02-15T11:53:12.248Z,10.86
2019-02-15T11:55:46.620Z,11.40
2019-02-15T11:58:20.376Z,11.96
2019-02-15T12:00:55.370Z,12.39
2019-02-15T12:03:28.417Z,12.71
2019-02-15T12:06:03.767Z,13.15
2019-02-15T12:08:38.434Z,13.59
2019-02-15T12:11:13.011Z,13.94
2019-02-15T12:13:47.991Z,14.24
2019-02-15T12:16:21.752Z,14.60
2019-02-15T12:18:56.022Z,14.68
2019-02-15T12:21:29.497Z,14.87
2019-02-15T12:24:03.765Z,15.07
2019-02-15T12:26:38.391Z,15.23
2019-02-15T12:29:11.758Z,15.55
2019-02-15T12:31:46.332Z,15.98
2019-02-15T12:34:20.167Z,16.47
2019-02-15T12:36:54.074Z,16.34
2019-02-15T12:39:27.786Z,16.75
2019-02-15T12:42:01.135Z,16.52
2019-02-15T12:44:33.555Z,16.98
2019-02-15T12:47:14.852Z,17.37
2019-02-15T12:49:41.709Z,17.54
2019-02-15T12:52:15.715Z,17.72
2019-02-15T12:54:49.265Z,17.65
2019-02-15T12:57:22.705Z,17.78
2019-02-15T12:59:55.704Z,17.62
2019-02-15T13:02:28.726Z,17.57
2019-02-15T13:05:03.168Z,17.63
2019-02-15T13:07:38.225Z,17.52
2019-02-15T13:10:14.276Z,17.14
2019-02-15T13:12:47.742Z,17.09
2019-02-15T13:15:23.083Z,17.31
2019-02-15T13:17:57.134Z,17.51
2019-02-15T13:20:33.228Z,17.65
2019-02-15T13:23:07.405Z,17.66
2019-02-15T13:25:41.541Z,17.81
2019-02-15T13:28:16.116Z,17.80
2019-02-15T13:30:51.866Z,17.93
2019-02-15T13:33:25.730Z,18.06
2019-02-15T13:36:00.549Z,17.72
2019-02-15T13:38:34.668Z,17.76
2019-02-15T13:41:09.716Z,17.98
2019-02-15T13:43:44.124Z,18.12
2019-02-15T13:46:18.112Z,18.04
2019-02-15T13:48:51.051Z,18.17
2019-02-15T13:51:26.518Z,18.17
2019-02-15T13:54:00.755Z,17.83
2019-02-15T13:56:36.886Z,17.70
2019-02-15T13:59:11.718Z,17.70
2019-02-15T14:01:47.097Z,17.53
2019-02-15T14:04:24.012Z,17.31
2019-02-15T14:07:02.427Z,17.13
2019-02-15T14:09:37.269Z,17.14
2019-02-15T14:12:13.053Z,17.20
2019-02-15T14:14:48.799Z,17.08
2019-02-15T14:17:24.031Z,17.05
2019-02-15T14:19:58.775Z,16.81
2019-02-15T14:22:32.296Z,16.71
2019-02-15T14:25:08.243Z,16.88
2019-02-15T14:27:43.158Z,17.27
2019-02-15T14:30:17.028Z,17.67
2019-02-15T14:32:50.739Z,17.85
2019-02-15T14:35:26.240Z,18.12
2019-02-15T14:38:00.911Z,18.30
2019-02-15T14:40:35.338Z,18.48
2019-02-15T14:43:12.313Z,18.67
2019-02-15T14:45:53.792Z,18.91
2019-02-15T14:48:28.918Z,19.03
2019-02-15T14:51:04.977Z,19.11
2019-02-15T14:53:40.661Z,19.04
2019-02-15T14:56:15.914Z,18.97
2019-02-15T14:58:50.606Z,18.67
2019-02-15T15:01:24.575Z,18.64
2019-02-15T15:03:58.286Z,18.47
2019-02-15T15:06:33.074Z,18.34
2019-02-15T15:09:06.749Z,18.32
2019-02-15T15:11:40.023Z,18.22
2019-02-15T15:14:13.736Z,18.14
2019-02-15T15:16:46.610Z,18.00
2019-02-15T15:19:20.859Z,17.91
2019-02-15T15:21:54.828Z,17.76
2019-02-15T15:24:28.756Z,17.59
2019-02-15T15:27:01.625Z,17.33
2019-02-15T15:29:37.042Z,17.12
2019-02-15T15:32:11.969Z,17.04
2019-02-15T15:34:47.097Z,16.86
2019-02-15T15:37:22.250Z,16.73
2019-02-15T15:39:56.369Z,16.48
2019-02-15T15:42:31.371Z,16.22
2019-02-15T15:45:06.437Z,15.88
2019-02-15T15:47:41.033Z,15.44
2019-02-15T15:50:17.128Z,15.15
2019-02-15T15:52:53.269Z,14.92
2019-02-15T15:55:28.406Z,14.72
2019-02-15T15:58:05.309Z,14.50
2019-02-15T16:00:40.316Z,14.29
2019-02-15T16:03:15.437Z,14.05
2019-02-15T16:05:50.473Z,13.87
2019-02-15T16:08:25.409Z,13.57
2019-02-15T16:11:00.922Z,13.34
2019-02-15T16:13:36.217Z,13.11
2019-02-15T16:16:11.147Z,12.95
2019-02-15T16:18:47.514Z,12.81
2019-02-15T16:21:22.663Z,12.62
2019-02-15T16:23:57.596Z,12.42
2019-02-15T16:26:33.334Z,12.28
2019-02-15T16:29:09.079Z,12.20
2019-02-15T16:31:44.582Z,12.05
2019-02-15T16:34:19.197Z,11.91
2019-02-15T16:36:53.655Z,11.78
2019-02-15T16:39:28.605Z,11.67
2019-02-15T16:42:04.654Z,11.55
2019-02-15T16:44:39.401Z,11.45
2019-02-15T16:47:14.659Z,11.34
2019-02-15T16:49:49.811Z,11.22
2019-02-15T16:52:25.245Z,11.13
2019-02-15T16:55:00.313Z,11.05
2019-02-15T16:57:34.517Z,10.95
2019-02-15T17:00:09.065Z,10.82
2019-02-15T17:02:44.143Z,10.71
2019-02-15T17:05:18.416Z,10.64
2019-02-15T17:07:52.353Z,10.56
2019-02-15T17:10:27.231Z,10.49
2019-02-15T17:13:02.695Z,10.41
2019-02-15T17:15:38.192Z,10.33
2019-02-15T17:18:12.896Z,10.25
2019-02-15T17:20:47.160Z,10.15
2019-02-15T17:23:22.403Z,10.08
2019-02-15T17:25:58.875Z,10.06
2019-02-15T17:28:34.779Z,9.97
2019-02-15T17:31:09.854Z,9.93
2019-02-15T17:33:44.720Z,9.90
2019-02-15T17:36:20.007Z,9.80
2019-02-15T17:38:56.017Z,9.70
2019-02-15T17:41:29.784Z,9.62
2019-02-15T17:44:03.714Z,9.52
2019-02-15T17:46:38.138Z,9.47
2019-02-15T17:49:12.517Z,9.39
2019-02-15T17:51:47.030Z,9.33
2019-02-15T17:54:22.056Z,9.27
2019-02-15T17:56:56.914Z,9.25
2019-02-15T17:59:35.250Z,9.24
2019-02-15T18:02:11.258Z,9.23
2019-02-15T18:04:45.174Z,9.21
2019-02-15T18:07:19.052Z,9.18
2019-02-15T18:09:53.402Z,9.13
2019-02-15T18:12:26.827Z,9.10
2019-02-15T18:15:01.911Z,9.07
2019-02-15T18:17:36.332Z,8.98
2019-02-15T18:20:11.306Z,8.96
2019-02-15T18:22:45.252Z,8.90
2019-02-15T18:25:19.519Z,8.86
2019-02-15T18:27:54.463Z,8.83
2019-02-15T18:30:28.573Z,8.74
2019-02-15T18:33:02.471Z,8.65
2019-02-15T18:35:36.760Z,8.57
2019-02-15T18:38:12.455Z,8.54
2019-02-15T18:40:46.805Z,8.47
2019-02-15T18:43:22.144Z,8.45
2019-02-15T18:45:57.130Z,8.42
2019-02-15T18:48:32.122Z,8.35
2019-02-15T18:51:07.101Z,8.30
2019-02-15T18:53:43.079Z,8.25
2019-02-15T18:56:19.054Z,8.19
2019-02-15T18:58:52.900Z,8.11
2019-02-15T19:01:27.725Z,8.04
2019-02-15T19:04:02.307Z,7.99
2019-02-15T19:06:36.119Z,7.93
2019-02-15T19:09:10.269Z,7.87
2019-02-15T19:11:44.926Z,7.83
2019-02-15T19:14:19.931Z,7.80
2019-02-15T19:16:53.814Z,7.76
2019-02-15T19:19:29.516Z,7.74
2019-02-15T19:22:03.407Z,7.72
2019-02-15T19:24:36.594Z,7.71
2019-02-15T19:27:09.983Z,7.68
2019-02-15T19:29:42.839Z,7.66
2019-02-15T19:32:15.274Z,7.68
2019-02-15T19:34:49.275Z,7.67
2019-02-15T19:37:23.089Z,7.67
2019-02-15T19:39:56.086Z,7.66
2019-02-15T19:42:29.048Z,7.63
2019-02-15T19:45:02.005Z,7.60
2019-02-15T19:47:35.317Z,7.51
2019-02-15T19:50:09.748Z,7.45
2019-02-15T19:52:42.313Z,7.41
2019-02-15T19:55:14.862Z,7.40
2019-02-15T19:57:48.742Z,7.38
2019-02-15T20:00:21.962Z,7.32
2019-02-15T20:02:55.648Z,7.25
2019-02-15T20:05:28.743Z,7.16
2019-02-15T20:08:02.156Z,7.10
2019-02-15T20:10:34.995Z,7.07
2019-02-15T20:13:07.852Z,7.03
2019-02-15T20:15:41.237Z,6.97
2019-02-15T20:18:14.132Z,6.94
2019-02-15T20:20:47.010Z,6.87
2019-02-15T20:23:19.877Z,6.86
2019-02-15T20:25:53.230Z,6.86
2019-02-15T20:28:25.754Z,6.85
2019-02-15T20:30:58.968Z,6.88
2019-02-15T20:33:32.349Z,6.87
2019-02-15T20:36:05.351Z,6.84
2019-02-15T20:38:38.549Z,6.86
2019-02-15T20:41:12.581Z,6.87
2019-02-15T20:43:45.673Z,6.89
2019-02-15T20:46:19.154Z,6.87
2019-02-15T20:49:04.105Z,6.86
2019-02-15T20:51:30.314Z,6.84
2019-02-15T20:54:02.783Z,6.82
2019-02-15T20:56:36.040Z,6.80
2019-02-15T20:59:09.125Z,6.75
2019-02-15T21:01:42.299Z,6.71
2019-02-15T21:04:15.750Z,6.68
2019-02-15T21:06:49.168Z,6.63
2019-02-15T21:09:23.084Z,6.57
2019-02-15T21:11:58.760Z,6.52
2019-02-15T21:14:31.941Z,6.47
2019-02-15T21:17:05.409Z,6.45
2019-02-15T21:19:38.829Z,6.42
2019-02-15T21:22:12.924Z,6.42
2019-02-15T21:24:47.580Z,6.38
2019-02-15T21:27:20.866Z,6.41
2019-02-15T21:29:54.777Z,6.43
2019-02-15T21:32:27.809Z,6.44
2019-02-15T21:35:01.258Z,6.46
2019-02-15T21:37:33.530Z,6.43
2019-02-15T21:40:06.975Z,6.37
2019-02-15T21:42:39.429Z,6.32
2019-02-15T21:45:12.499Z,6.29
2019-02-15T21:47:46.015Z,6.23
2019-02-15T21:50:19.313Z,6.21
2019-02-15T21:52:51.787Z,6.19
2019-02-15T21:55:24.891Z,6.17
2019-02-15T21:58:01.482Z,6.14
2019-02-15T22:00:32.202Z,6.14
2019-02-15T22:03:04.190Z,6.10
2019-02-15T22:05:38.043Z,6.11
2019-02-15T22:08:10.168Z,6.09
2019-02-15T22:10:43.487Z,6.07
2019-02-15T22:13:16.333Z,6.02
2019-02-15T22:15:49.318Z,5.95
2019-02-15T22:18:24.266Z,5.93
2019-02-15T22:20:57.520Z,5.92
2019-02-15T22:23:30.743Z,5.90
2019-02-15T22:26:03.881Z,5.90
2019-02-15T22:28:37.346Z,5.92
2019-02-15T22:31:11.838Z,5.93
2019-02-15T22:33:45.824Z,5.93
2019-02-15T22:36:19.556Z,5.96
2019-02-15T22:38:53.263Z,5.97
2019-02-15T22:41:27.426Z,5.93
2019-02-15T22:44:01.132Z,5.92
2019-02-15T22:46:34.859Z,5.93
2019-02-15T22:49:08.249Z,5.90
2019-02-15T22:51:42.453Z,5.85
2019-02-15T22:54:15.751Z,5.82
2019-02-15T22:56:49.319Z,5.78
2019-02-15T22:59:23.129Z,5.75
2019-02-15T23:01:57.266Z,5.68
2019-02-15T23:04:31.479Z,5.65
2019-02-15T23:07:05.695Z,5.64
2019-02-15T23:09:39.811Z,5.63
2019-02-15T23:12:13.605Z,5.63
2019-02-15T23:14:47.246Z,5.63
2019-02-15T23:17:21.331Z,5.63
2019-02-15T23:19:55.038Z,5.58
2019-02-15T23:22:28.835Z,5.53
2019-02-15T23:25:03.078Z,5.45
2019-02-15T23:27:36.782Z,5.41
2019-02-15T23:30:09.641Z,5.37
2019-02-15T23:32:43.862Z,5.35
2019-02-15T23:35:17.189Z,5.34
2019-02-15T23:37:50.308Z,5.30
2019-02-15T23:40:23.433Z,5.26
2019-02-15T23:42:56.742Z,5.22
2019-02-15T23:45:30.492Z,5.18
2019-02-15T23:48:04.552Z,5.14
2019-02-15T23:50:38.157Z,5.12
2019-02-15T23:53:11.943Z,5.09
2019-02-15T23:55:45.251Z,5.05
2019-02-15T23:58:18.975Z,5.03
